Time;durP1;ratioP1;P1;durP2;ratioP2;P2;SDS_P1;SDS_P2;PMS_P1;PMS_P2;Temp;Humidity;BMP_temperature;BMP_pressure;BME280_temperature;BME280_humidity;BME280_pressure;Samples;Min_cycle;Max_cycle;Signal;HPM_P1;HPM_P2
2022/09/17 00:01:05;;;;;;;15.40;2.67;;;11.60;99.90;;;;;;4994191;28;20674;-72
2022/09/17 00:03:33;;;;;;;12.97;2.47;;;11.70;99.90;;;;;;4992698;28;20213;-73
2022/09/17 00:06:06;;;;;;;19.20;4.63;;;11.60;99.90;;;;;;4992435;28;20360;-72
2022/09/17 00:08:34;;;;;;;9.57;2.80;;;11.70;99.90;;;;;;4993168;28;20241;-73
2022/09/17 00:11:14;;;;;;;13.63;2.67;;;11.70;99.90;;;;;;4987799;28;20386;-74
2022/09/17 00:13:42;;;;;;;14.23;2.87;;;11.70;99.90;;;;;;4972946;28;20223;-74
2022/09/17 00:16:10;;;;;;;11.70;3.60;;;11.70;99.90;;;;;;4998800;28;20335;-73
2022/09/17 00:18:40;;;;;;;20.07;2.80;;;11.70;99.90;;;;;;4994372;28;20202;-73
2022/09/17 00:21:16;;;;;;;16.70;2.53;;;11.70;99.90;;;;;;4975664;28;20247;-73
2022/09/17 00:23:43;;;;;;;15.47;2.83;;;11.70;99.90;;;;;;4977800;28;20244;-73
2022/09/17 00:26:10;;;;;;;14.87;3.47;;;11.80;99.90;;;;;;4992980;28;20232;-73
2022/09/17 00:28:37;;;;;;;14.47;2.40;;;11.70;99.90;;;;;;4996814;28;20303;-73
2022/09/17 00:31:08;;;;;;;17.50;2.60;;;11.70;99.90;;;;;;4995392;28;20749;-74
2022/09/17 00:33:36;;;;;;;24.30;3.10;;;11.70;99.90;;;;;;4998280;28;20241;-73
2022/09/17 00:36:04;;;;;;;24.93;3.00;;;11.80;99.90;;;;;;4998462;28;20652;-73
2022/09/17 00:38:31;;;;;;;15.57;3.10;;;11.70;99.90;;;;;;4959206;28;20701;-74
2022/09/17 00:40:58;;;;;;;18.00;3.00;;;11.70;99.90;;;;;;4976982;28;20293;-72
2022/09/17 00:43:56;;;;;;;22.57;3.20;;;11.70;99.90;;;;;;4998219;28;20226;-72
2022/09/17 00:46:37;;;;;;;10.60;2.43;;;11.70;99.90;;;;;;4993170;28;20245;-74
2022/09/17 00:49:17;;;;;;;16.40;3.10;;;11.60;99.90;;;;;;4996254;28;20213;-74
2022/09/17 00:51:51;;;;;;;8.53;2.20;;;11.60;99.90;;;;;;4987807;28;20199;-73
2022/09/17 00:54:25;;;;;;;11.03;2.60;;;11.60;99.90;;;;;;4992533;28;20275;-72
2022/09/17 00:56:52;;;;;;;8.97;2.20;;;11.50;99.90;;;;;;5001157;28;20642;-74
2022/09/17 00:59:21;;;;;;;13.00;2.50;;;11.50;99.90;;;;;;4997503;28;20234;-74
2022/09/17 01:01:49;;;;;;;13.03;2.73;;;11.40;99.90;;;;;;4999443;28;20302;-73
2022/09/17 01:04:22;;;;;;;17.33;4.23;;;11.40;99.90;;;;;;4984721;28;20283;-73
2022/09/17 01:06:55;;;;;;;8.63;2.17;;;11.30;99.90;;;;;;4973255;28;20229;-73
2022/09/17 01:09:51;;;;;;;11.47;2.97;;;11.20;99.90;;;;;;4995467;28;20210;-73
2022/09/17 01:12:46;;;;;;;13.97;3.20;;;11.20;99.90;;;;;;4981022;28;20672;-72
2022/09/17 01:15:38;;;;;;;12.73;2.40;;;11.10;99.90;;;;;;4999094;28;20204;-73
2022/09/17 01:18:52;;;;;;;17.00;1.97;;;11.00;99.90;;;;;;4967735;28;20208;-73
2022/09/17 01:21:38;;;;;;;15.63;4.20;;;11.00;99.90;;;;;;4882078;29;20694;-74
2022/09/17 01:24:42;;;;;;;13.10;2.53;;;11.00;99.90;;;;;;4900659;29;20206;-73
2022/09/17 01:27:38;;;;;;;10.63;2.17;;;10.90;99.90;;;;;;4986040;28;20238;-74
2022/09/17 01:30:27;;;;;;;9.63;2.20;;;10.90;99.90;;;;;;4997634;28;20231;-74
2022/09/17 01:33:23;;;;;;;14.80;2.43;;;10.90;99.90;;;;;;4998847;28;20265;-73
2022/09/17 01:36:00;;;;;;;11.87;1.90;;;10.90;99.90;;;;;;4997379;28;20211;-73
2022/09/17 01:38:58;;;;;;;11.97;2.30;;;10.90;99.90;;;;;;4994080;28;20229;-73
2022/09/17 01:41:42;;;;;;;10.47;2.03;;;10.90;99.90;;;;;;4996388;28;20224;-73
2022/09/17 01:44:27;;;;;;;9.27;2.20;;;10.90;99.90;;;;;;5000230;28;20322;-73
2022/09/17 01:47:22;;;;;;;8.27;2.20;;;11.00;99.90;;;;;;4995866;28;20227;-73
2022/09/17 01:49:58;;;;;;;9.73;2.00;;;11.00;99.90;;;;;;4995953;28;20297;-73
2022/09/17 01:52:27;;;;;;;10.17;1.97;;;11.00;99.90;;;;;;4999895;28;20212;-72
2022/09/17 01:55:00;;;;;;;8.87;1.93;;;11.00;99.90;;;;;;5000676;28;20211;-72
2022/09/17 01:57:33;;;;;;;8.13;1.90;;;11.10;99.90;;;;;;4994188;28;20304;-70
2022/09/17 02:00:16;;;;;;;11.43;1.70;;;11.10;99.90;;;;;;5000089;28;20204;-71
2022/09/17 02:02:55;;;;;;;9.53;1.93;;;11.10;99.90;;;;;;4998612;28;20223;-71
2022/09/17 02:05:29;;;;;;;8.33;1.67;;;11.10;99.90;;;;;;4990207;28;20306;-72
2022/09/17 02:08:12;;;;;;;8.20;1.70;;;11.20;99.90;;;;;;4995116;28;20328;-72
2022/09/17 02:10:44;;;;;;;11.10;2.37;;;11.20;99.90;;;;;;4994569;28;20287;-72
2022/09/17 02:13:37;;;;;;;17.20;2.10;;;11.20;99.90;;;;;;4998475;28;20305;-73
2022/09/17 02:16:15;;;;;;;15.27;2.57;;;11.20;99.90;;;;;;4973409;28;20222;-72
2022/09/17 02:18:49;;;;;;;14.07;2.83;;;11.20;99.90;;;;;;4978895;28;20264;-73
2022/09/17 02:21:28;;;;;;;7.23;2.20;;;11.20;99.90;;;;;;4991382;28;20203;-72
2022/09/17 02:24:09;;;;;;;11.63;2.23;;;11.10;99.90;;;;;;4996092;28;20208;-73
2022/09/17 02:26:41;;;;;;;10.20;2.03;;;11.10;99.90;;;;;;4967261;28;20692;-73
2022/09/17 02:29:17;;;;;;;7.67;1.83;;;11.10;99.90;;;;;;4979445;28;20668;-74
2022/09/17 02:31:43;;;;;;;11.17;2.00;;;11.10;99.90;;;;;;4983380;28;20268;-72
2022/09/17 02:34:10;;;;;;;7.73;2.17;;;11.10;99.90;;;;;;4974637;28;20288;-73
2022/09/17 02:36:37;;;;;;;10.80;1.93;;;11.10;99.90;;;;;;4999253;28;20314;-73
2022/09/17 02:39:04;;;;;;;6.73;1.47;;;11.10;99.90;;;;;;4998140;28;20212;-73
2022/09/17 02:41:45;;;;;;;6.07;1.90;;;11.10;99.90;;;;;;4993675;28;20206;-73
2022/09/17 02:44:28;;;;;;;6.60;1.60;;;11.20;99.90;;;;;;5000781;28;20264;-73
2022/09/17 02:47:13;;;;;;;7.27;1.60;;;11.20;99.90;;;;;;5000230;28;20239;-73
2022/09/17 02:50:04;;;;;;;8.87;1.83;;;11.10;99.90;;;;;;4998499;28;20209;-73
2022/09/17 02:52:53;;;;;;;8.47;1.63;;;11.20;99.90;;;;;;4995599;28;20307;-74
2022/09/17 02:55:36;;;;;;;12.57;1.93;;;11.20;99.90;;;;;;4962749;28;20205;-74
2022/09/17 02:58:25;;;;;;;9.80;2.00;;;11.20;99.90;;;;;;4997480;28;20208;-74
2022/09/17 03:00:56;;;;;;;8.77;1.83;;;11.20;99.90;;;;;;4994288;28;20578;-76
2022/09/17 03:03:32;;;;;;;8.80;2.13;;;11.20;99.90;;;;;;4995235;28;20587;-74
2022/09/17 03:05:59;;;;;;;8.50;1.40;;;11.10;99.90;;;;;;4980293;28;20737;-74
2022/09/17 03:08:33;;;;;;;6.97;1.73;;;11.10;99.90;;;;;;4998926;28;20632;-74
2022/09/17 03:11:00;;;;;;;8.20;2.13;;;11.00;99.90;;;;;;4995700;28;20218;-74
2022/09/17 03:13:27;;;;;;;13.37;1.80;;;11.00;99.90;;;;;;4999223;28;20646;-74
2022/09/17 03:15:53;;;;;;;4.23;1.60;;;11.00;99.90;;;;;;4996699;28;20235;-75
2022/09/17 03:18:20;;;;;;;8.13;1.60;;;10.90;99.90;;;;;;4997743;28;20237;-74
2022/09/17 03:20:47;;;;;;;13.80;1.97;;;10.80;99.90;;;;;;4995139;28;20241;-74
2022/09/17 03:23:14;;;;;;;9.60;1.80;;;10.80;99.90;;;;;;4997803;28;20211;-75
2022/09/17 03:25:41;;;;;;;8.83;1.80;;;10.70;99.90;;;;;;4994826;28;20206;-72
2022/09/17 03:28:07;;;;;;;12.23;1.83;;;10.70;99.90;;;;;;4997711;28;20244;-75
2022/09/17 03:30:34;;;;;;;6.80;2.13;;;10.70;99.90;;;;;;4993334;28;20223;-74
2022/09/17 03:33:01;;;;;;;8.17;1.70;;;10.60;99.90;;;;;;4979684;28;20227;-74
2022/09/17 03:35:27;;;;;;;8.80;1.60;;;10.60;99.90;;;;;;4998823;28;20384;-73
2022/09/17 03:37:54;;;;;;;12.00;2.00;;;10.70;99.90;;;;;;4994579;28;20287;-72
2022/09/17 03:40:21;;;;;;;10.10;1.67;;;10.70;99.90;;;;;;4977388;28;20215;-73
2022/09/17 03:42:48;;;;;;;7.77;1.67;;;10.80;99.90;;;;;;4999711;28;20234;-72
2022/09/17 03:45:14;;;;;;;6.80;1.70;;;10.80;99.90;;;;;;5000067;28;20207;-71
2022/09/17 03:47:41;;;;;;;11.53;2.80;;;10.80;99.90;;;;;;4995841;28;20242;-71
2022/09/17 03:50:08;;;;;;;14.27;2.63;;;10.80;99.90;;;;;;4976940;28;20203;-72
2022/09/17 03:52:35;;;;;;;9.27;1.60;;;10.80;99.90;;;;;;4998397;28;20618;-73
2022/09/17 03:55:02;;;;;;;9.47;2.77;;;10.90;99.90;;;;;;4977659;28;20290;-73
2022/09/17 03:57:29;;;;;;;9.47;1.60;;;10.90;99.90;;;;;;4994520;28;20308;-74
2022/09/17 03:59:56;;;;;;;6.90;1.87;;;10.90;99.90;;;;;;4995748;28;20210;-73
2022/09/17 04:02:23;;;;;;;11.03;1.90;;;10.90;99.90;;;;;;4996847;28;20223;-73
2022/09/17 04:04:51;;;;;;;10.03;1.87;;;10.90;99.90;;;;;;4979384;28;20215;-72
2022/09/17 04:07:17;;;;;;;8.13;2.10;;;10.90;99.90;;;;;;4979259;28;20251;-72
2022/09/17 04:09:44;;;;;;;8.20;2.07;;;10.90;99.90;;;;;;4998320;28;20219;-72
2022/09/17 04:12:11;;;;;;;11.53;2.03;;;10.80;99.90;;;;;;4979165;28;20218;-72
2022/09/17 04:14:37;;;;;;;8.20;1.90;;;10.80;99.90;;;;;;4996830;28;20230;-72
2022/09/17 04:17:04;;;;;;;12.50;2.50;;;10.80;99.90;;;;;;4993313;28;20215;-72
2022/09/17 04:19:31;;;;;;;12.37;2.30;;;10.80;99.90;;;;;;4981561;28;20591;-72
2022/09/17 04:21:57;;;;;;;6.33;1.57;;;10.80;99.90;;;;;;4995698;28;20202;-75
2022/09/17 04:24:24;;;;;;;7.77;1.73;;;10.80;99.90;;;;;;4995301;28;20300;-73
2022/09/17 04:26:51;;;;;;;10.80;1.60;;;10.80;99.90;;;;;;4996882;28;20227;-73
2022/09/17 04:29:17;;;;;;;8.00;1.50;;;10.70;99.90;;;;;;4992026;28;20292;-73
2022/09/17 04:31:44;;;;;;;10.57;1.80;;;10.80;99.90;;;;;;4994425;28;20215;-73
2022/09/17 04:34:11;;;;;;;10.43;2.57;;;10.80;99.90;;;;;;4996581;28;20235;-73
2022/09/17 04:36:38;;;;;;;9.93;2.00;;;10.70;99.90;;;;;;4995467;28;20674;-73
2022/09/17 04:39:05;;;;;;;12.23;2.00;;;10.80;99.90;;;;;;4993551;28;20211;-74
2022/09/17 04:41:32;;;;;;;8.87;2.10;;;10.80;99.90;;;;;;4997624;28;20294;-74
2022/09/17 04:43:58;;;;;;;11.67;1.80;;;10.80;99.90;;;;;;4995380;28;20211;-74
2022/09/17 04:46:25;;;;;;;15.57;2.27;;;10.80;99.90;;;;;;4999555;28;20531;-72
2022/09/17 04:48:52;;;;;;;10.77;1.83;;;10.80;99.90;;;;;;4995774;28;20313;-72
2022/09/17 04:51:18;;;;;;;11.83;1.93;;;10.80;99.90;;;;;;4994871;28;20625;-72
2022/09/17 04:53:45;;;;;;;13.33;1.93;;;10.80;99.90;;;;;;4997028;28;20252;-70
2022/09/17 04:56:12;;;;;;;13.20;1.80;;;10.80;99.90;;;;;;4993931;28;20199;-72
2022/09/17 04:58:39;;;;;;;8.63;1.90;;;10.70;99.90;;;;;;4967277;28;20212;-72
2022/09/17 05:01:05;;;;;;;6.83;1.83;;;10.70;99.90;;;;;;4989932;28;20577;-71
2022/09/17 05:03:32;;;;;;;9.37;1.50;;;10.70;99.90;;;;;;4998044;28;20211;-72
2022/09/17 05:05:59;;;;;;;8.50;1.60;;;10.70;99.90;;;;;;4984148;28;20530;-70
2022/09/17 05:08:26;;;;;;;12.03;2.10;;;10.70;99.90;;;;;;4986940;28;20974;-71
2022/09/17 05:10:52;;;;;;;7.57;2.00;;;10.60;99.90;;;;;;4992027;28;20233;-71
2022/09/17 05:13:19;;;;;;;8.40;1.57;;;10.60;99.90;;;;;;4986659;28;20210;-72
2022/09/17 05:15:46;;;;;;;8.90;2.50;;;10.60;99.90;;;;;;4972992;28;20551;-72
2022/09/17 05:18:13;;;;;;;4.80;1.40;;;10.60;99.90;;;;;;4995528;28;20219;-72
2022/09/17 05:20:39;;;;;;;5.73;1.20;;;10.60;99.90;;;;;;4990570;28;20578;-72
2022/09/17 05:23:06;;;;;;;7.53;1.60;;;10.50;99.90;;;;;;4991044;28;20210;-71
2022/09/17 05:25:33;;;;;;;4.87;1.27;;;10.50;99.90;;;;;;4983852;28;20200;-73
2022/09/17 05:28:00;;;;;;;5.60;1.80;;;10.50;99.90;;;;;;4990685;28;20313;-72
2022/09/17 05:30:27;;;;;;;7.33;2.03;;;10.50;99.90;;;;;;4988971;28;20278;-73
2022/09/17 05:33:02;;;;;;;6.93;1.30;;;10.50;99.90;;;;;;4993968;28;20222;-73
2022/09/17 05:35:30;;;;;;;6.13;1.47;;;10.50;99.90;;;;;;4994518;28;20312;-73
2022/09/17 05:37:58;;;;;;;7.53;1.50;;;10.50;99.90;;;;;;4993113;28;20250;-73
2022/09/17 05:40:25;;;;;;;7.13;1.70;;;10.60;99.90;;;;;;4991515;28;20273;-72
2022/09/17 05:43:00;;;;;;;7.70;1.77;;;10.70;99.90;;;;;;4992680;28;20199;-74
2022/09/17 05:45:27;;;;;;;9.07;1.57;;;10.70;99.90;;;;;;4996078;28;20205;-73
2022/09/17 05:47:56;;;;;;;8.90;1.50;;;10.80;99.90;;;;;;4993701;28;20231;-72
2022/09/17 05:50:23;;;;;;;6.17;1.23;;;10.80;99.90;;;;;;4986901;28;20286;-74
2022/09/17 05:52:51;;;;;;;6.00;1.50;;;10.80;99.90;;;;;;4991528;28;20198;-74
2022/09/17 05:55:19;;;;;;;8.20;2.40;;;10.80;99.90;;;;;;4995660;28;20277;-73
2022/09/17 05:57:45;;;;;;;9.23;2.37;;;10.80;99.90;;;;;;4994094;28;20629;-73
2022/09/17 06:00:13;;;;;;;7.83;2.03;;;10.70;99.90;;;;;;4990307;28;20261;-75
2022/09/17 06:02:40;;;;;;;5.23;1.50;;;10.80;99.90;;;;;;4992097;28;21241;-74
2022/09/17 06:05:07;;;;;;;8.73;1.70;;;10.70;99.90;;;;;;4979224;28;20596;-74
2022/09/17 06:07:35;;;;;;;9.83;1.60;;;10.80;99.90;;;;;;5000026;28;20325;-75
2022/09/17 06:10:03;;;;;;;6.67;1.50;;;10.80;99.90;;;;;;4994781;28;20221;-76
2022/09/17 06:12:34;;;;;;;6.77;1.63;;;10.80;99.90;;;;;;4999897;28;20665;-74
2022/09/17 06:15:02;;;;;;;7.33;1.50;;;10.80;99.90;;;;;;4997821;28;20242;-75
2022/09/17 06:17:33;;;;;;;4.97;1.40;;;10.80;99.90;;;;;;5001331;28;20224;-74
2022/09/17 06:20:02;;;;;;;4.70;1.60;;;10.80;99.90;;;;;;4999246;28;20222;-76
2022/09/17 06:22:30;;;;;;;5.87;1.80;;;10.80;99.90;;;;;;4997297;28;20286;-74
2022/09/17 06:24:58;;;;;;;10.50;1.70;;;10.70;99.90;;;;;;4977672;28;20270;-75
2022/09/17 06:27:30;;;;;;;5.67;1.50;;;10.80;99.90;;;;;;4996319;28;20525;-75
2022/09/17 06:29:57;;;;;;;5.20;1.17;;;10.70;99.90;;;;;;4993293;28;20223;-74
2022/09/17 06:32:24;;;;;;;3.03;1.20;;;10.70;99.90;;;;;;4992279;28;20314;-75
2022/09/17 06:34:51;;;;;;;6.70;1.30;;;10.80;99.90;;;;;;4990940;28;20319;-75
2022/09/17 06:37:18;;;;;;;7.60;1.60;;;10.90;99.90;;;;;;4992574;28;20691;-76
2022/09/17 06:39:44;;;;;;;6.83;1.60;;;11.10;99.90;;;;;;4971415;28;20217;-75
2022/09/17 06:42:11;;;;;;;6.50;1.37;;;11.20;99.90;;;;;;4994339;28;20662;-74
2022/09/17 06:44:38;;;;;;;6.83;1.40;;;11.30;99.90;;;;;;4996633;28;20202;-75
2022/09/17 06:47:06;;;;;;;5.80;1.40;;;11.30;99.90;;;;;;4978020;28;20275;-75
2022/09/17 06:49:33;;;;;;;3.53;1.37;;;11.30;99.90;;;;;;4988037;28;20212;-75
2022/09/17 06:52:00;;;;;;;4.60;1.37;;;11.50;99.90;;;;;;4993175;28;20210;-74
2022/09/17 06:54:27;;;;;;;4.20;1.10;;;11.60;99.90;;;;;;4990422;28;20254;-75
2022/09/17 06:56:54;;;;;;;3.13;0.93;;;11.50;99.90;;;;;;4981492;28;20241;-74
2022/09/17 06:59:21;;;;;;;8.20;1.50;;;11.50;99.90;;;;;;5000381;28;20311;-74
2022/09/17 07:01:48;;;;;;;3.73;1.10;;;11.50;99.90;;;;;;4984691;28;20234;-75
2022/09/17 07:04:16;;;;;;;2.67;1.03;;;11.70;99.90;;;;;;4996746;28;20195;-74
2022/09/17 07:06:43;;;;;;;8.67;1.30;;;12.20;99.90;;;;;;4998627;28;20225;-74
2022/09/17 07:09:11;;;;;;;3.27;0.70;;;12.60;99.90;;;;;;4999738;28;20321;-75
2022/09/17 07:11:38;;;;;;;4.77;1.00;;;12.70;99.90;;;;;;4987295;28;20663;-75
2022/09/17 07:14:05;;;;;;;3.07;1.00;;;12.60;99.90;;;;;;4998430;28;20285;-74
2022/09/17 07:16:34;;;;;;;4.97;1.03;;;12.70;99.90;;;;;;4982727;28;20637;-75
2022/09/17 07:19:04;;;;;;;2.93;1.00;;;12.70;99.90;;;;;;4998716;28;20315;-75
2022/09/17 07:21:31;;;;;;;10.43;1.30;;;13.20;99.90;;;;;;4979475;28;20203;-78
2022/09/17 07:23:58;;;;;;;2.30;0.90;;;13.60;99.90;;;;;;4997514;28;20278;-77
2022/09/17 07:26:25;;;;;;;5.63;1.87;;;14.10;99.90;;;;;;4998181;28;20198;-77
2022/09/17 07:28:51;;;;;;;6.37;1.53;;;14.20;99.90;;;;;;4999362;28;20230;-77
2022/09/17 07:31:18;;;;;;;4.90;1.20;;;14.20;99.90;;;;;;4998302;28;20314;-77
2022/09/17 07:33:45;;;;;;;5.13;1.17;;;13.90;99.90;;;;;;4996608;28;20230;-76
2022/09/17 07:36:16;;;;;;;5.10;1.03;;;13.70;99.90;;;;;;4998955;28;20211;-76
2022/09/17 07:38:43;;;;;;;5.50;1.20;;;13.70;99.90;;;;;;4999552;28;20225;-76
2022/09/17 07:41:14;;;;;;;7.67;1.40;;;14.00;99.90;;;;;;4995485;28;20795;-76
2022/09/17 07:43:42;;;;;;;6.30;0.93;;;14.30;99.90;;;;;;4982044;28;20289;-76
2022/09/17 07:46:14;;;;;;;3.17;0.87;;;14.80;99.90;;;;;;4990535;28;20650;-77
2022/09/17 07:48:41;;;;;;;3.33;0.90;;;15.40;99.90;;;;;;4988503;28;20707;-76
2022/09/17 07:51:17;;;;;;;3.00;0.90;;;16.00;99.90;;;;;;4982824;28;20551;-77
2022/09/17 07:53:45;;;;;;;4.95;1.02;;;16.40;99.90;;;;;;4990972;28;20294;-75
2022/09/17 07:56:12;;;;;;;5.75;1.10;;;16.30;99.90;;;;;;4996035;28;20298;-74
2022/09/17 07:58:39;;;;;;;5.87;1.30;;;15.90;99.90;;;;;;4995704;28;20213;-75
2022/09/17 08:01:09;;;;;;;7.10;1.13;;;15.40;99.90;;;;;;4996971;28;20734;-75
2022/09/17 08:03:38;;;;;;;5.20;1.03;;;14.90;99.90;;;;;;4979591;28;20218;-75
2022/09/17 08:06:10;;;;;;;6.40;1.13;;;14.50;99.90;;;;;;4981125;28;20196;-76
2022/09/17 08:08:39;;;;;;;5.43;1.00;;;14.40;99.90;;;;;;4998247;28;20253;-76
2022/09/17 08:11:08;;;;;;;4.37;1.13;;;14.70;99.90;;;;;;4993038;28;20301;-77
2022/09/17 08:13:37;;;;;;;2.63;1.10;;;15.10;99.90;;;;;;4996967;28;20214;-77
2022/09/17 08:16:07;;;;;;;5.35;0.93;;;15.70;99.90;;;;;;4995486;28;20227;-78
2022/09/17 08:18:34;;;;;;;5.47;1.30;;;16.20;99.90;;;;;;4996058;28;20214;-77
2022/09/17 08:21:04;;;;;;;5.55;1.05;;;16.70;99.90;;;;;;4998370;28;20301;-78
2022/09/17 08:23:35;;;;;;;5.30;1.00;;;17.30;99.90;;;;;;4979727;28;20203;-77
2022/09/17 08:26:03;;;;;;;6.47;1.25;;;17.70;99.90;;;;;;4967788;28;20198;-77
2022/09/17 08:28:34;;;;;;;5.38;1.38;;;18.20;99.90;;;;;;5006434;28;20234;-76
2022/09/17 08:31:07;;;;;;;4.15;1.80;;;18.50;99.90;;;;;;4996710;28;20262;-76
2022/09/17 08:33:38;;;;;;;3.20;1.25;;;18.50;99.90;;;;;;4997203;28;20222;-77
2022/09/17 08:36:07;;;;;;;5.90;1.10;;;18.30;99.90;;;;;;4993023;28;20285;-78
2022/09/17 08:38:39;;;;;;;5.00;1.02;;;17.90;99.90;;;;;;4997110;28;20559;-77
2022/09/17 08:41:09;;;;;;;5.78;1.45;;;17.60;99.90;;;;;;4976207;28;20286;-77
2022/09/17 08:43:41;;;;;;;3.72;1.10;;;17.30;99.90;;;;;;4996138;28;20682;-77
2022/09/17 08:46:09;;;;;;;5.68;1.23;;;16.60;99.90;;;;;;4993647;28;20281;-78
2022/09/17 08:48:51;;;;;;;7.20;1.40;;;16.10;99.90;;;;;;4996076;28;20238;-76
2022/09/17 08:51:24;;;;;;;5.87;1.00;;;15.60;99.90;;;;;;4993714;28;20297;-79
2022/09/17 08:54:25;;;;;;;5.93;1.13;;;15.20;99.90;;;;;;4993085;28;20613;-78
2022/09/17 08:57:09;;;;;;;5.63;1.67;;;14.90;99.90;;;;;;4998573;28;20288;-77
2022/09/17 08:59:56;;;;;;;5.10;1.40;;;14.60;99.90;;;;;;4996046;28;20211;-77
2022/09/17 09:02:48;;;;;;;3.70;1.00;;;14.70;99.90;;;;;;4998373;28;20594;-80
2022/09/17 09:05:20;;;;;;;3.67;1.20;;;15.10;99.90;;;;;;4994597;28;20219;-78
2022/09/17 09:07:53;;;;;;;7.07;1.03;;;15.40;99.90;;;;;;4996184;28;20280;-78
2022/09/17 09:10:24;;;;;;;3.27;1.00;;;15.50;99.90;;;;;;4996124;28;20290;-78
2022/09/17 09:12:52;;;;;;;6.17;1.00;;;15.50;99.90;;;;;;4975386;28;20288;-78
2022/09/17 09:15:42;;;;;;;4.97;1.20;;;15.50;99.90;;;;;;4996274;28;20619;-76
2022/09/17 09:18:21;;;;;;;7.70;1.50;;;15.40;99.90;;;;;;5001326;28;20602;-78
2022/09/17 09:20:50;;;;;;;3.50;1.10;;;15.10;99.90;;;;;;5001269;28;20209;-76
2022/09/17 09:23:35;;;;;;;4.13;1.30;;;14.90;99.90;;;;;;4996563;28;20206;-77
2022/09/17 09:26:20;;;;;;;4.33;1.37;;;14.80;99.90;;;;;;4996003;28;20231;-77
2022/09/17 09:29:09;;;;;;;2.90;1.30;;;14.50;99.90;;;;;;4996580;28;20681;-78
2022/09/17 09:31:47;;;;;;;5.93;1.30;;;14.70;99.90;;;;;;4995853;28;20270;-78
2022/09/17 09:34:15;;;;;;;3.40;1.00;;;15.10;99.90;;;;;;4977890;28;20747;-78
2022/09/17 09:36:43;;;;;;;4.23;1.53;;;15.40;99.90;;;;;;4999652;28;20211;-76
2022/09/17 09:39:27;;;;;;;3.33;0.93;;;15.70;99.90;;;;;;4994912;28;20245;-77
2022/09/17 09:42:31;;;;;;;2.60;0.80;;;15.90;99.90;;;;;;4999320;28;20711;-77
2022/09/17 09:45:16;;;;;;;4.50;1.17;;;15.80;99.90;;;;;;4954953;28;20219;-78
2022/09/17 09:47:57;;;;;;;4.87;1.00;;;16.00;99.90;;;;;;4999189;28;20289;-78
2022/09/17 09:51:03;;;;;;;3.80;0.90;;;16.20;99.90;;;;;;4997838;28;20669;-79
2022/09/17 09:53:38;;;;;;;2.73;0.87;;;16.40;99.90;;;;;;5004367;28;20704;-78
2022/09/17 09:56:34;;;;;;;3.53;0.90;;;16.50;99.90;;;;;;4997808;28;20301;-79
2022/09/17 09:59:06;;;;;;;3.80;1.33;;;16.40;99.90;;;;;;5000318;28;20210;-78
2022/09/17 10:01:37;;;;;;;5.57;1.52;;;16.40;99.90;;;;;;5000507;28;20302;-79
2022/09/17 10:04:19;;;;;;;3.50;0.88;;;16.60;99.90;;;;;;4999106;28;20265;-77
2022/09/17 10:06:49;;;;;;;4.28;0.95;;;17.10;99.90;;;;;;5002015;28;20262;-79
2022/09/17 10:09:20;;;;;;;6.15;1.77;;;17.10;99.90;;;;;;4999651;28;20694;-76
2022/09/17 10:12:14;;;;;;;2.65;1.00;;;16.90;99.90;;;;;;4998529;28;20254;-76
2022/09/17 10:14:43;;;;;;;3.83;1.20;;;16.50;99.90;;;;;;4996629;28;20215;-75
2022/09/17 10:17:21;;;;;;;3.13;0.90;;;15.90;99.90;;;;;;4998646;28;20353;-75
2022/09/17 10:20:05;;;;;;;5.90;1.10;;;15.40;99.90;;;;;;4996580;28;20261;-75
2022/09/17 10:22:35;;;;;;;7.13;1.00;;;15.10;99.90;;;;;;4990912;28;20199;-76
2022/09/17 10:25:04;;;;;;;2.37;0.80;;;14.80;99.90;;;;;;4992701;28;20253;-76
2022/09/17 10:27:33;;;;;;;3.37;1.07;;;14.60;99.90;;;;;;4998121;28;20224;-77
2022/09/17 10:30:08;;;;;;;2.70;0.80;;;14.60;99.90;;;;;;4993031;28;20377;-77
2022/09/17 10:32:35;;;;;;;4.00;0.77;;;14.60;99.90;;;;;;5001017;28;20636;-76
2022/09/17 10:35:27;;;;;;;2.57;0.80;;;14.60;99.90;;;;;;4996964;28;20330;-74
2022/09/17 10:37:54;;;;;;;5.53;0.97;;;14.70;99.90;;;;;;4991530;28;20290;-77
2022/09/17 10:40:27;;;;;;;5.00;0.90;;;14.70;99.90;;;;;;4987750;28;20214;-77
2022/09/17 10:43:15;;;;;;;2.77;1.00;;;14.70;99.90;;;;;;4992970;28;20273;-77
2022/09/17 10:45:56;;;;;;;3.53;0.80;;;14.90;99.90;;;;;;4994895;28;20320;-79
2022/09/17 10:48:24;;;;;;;2.67;1.13;;;15.10;99.90;;;;;;4995252;28;20229;-76
2022/09/17 10:50:53;;;;;;;4.10;0.90;;;15.20;99.90;;;;;;4989668;28;20207;-77
2022/09/17 10:53:22;;;;;;;3.63;0.90;;;15.30;99.90;;;;;;4995378;28;20209;-75
2022/09/17 10:56:01;;;;;;;2.77;0.90;;;15.40;99.90;;;;;;5000128;28;20301;-77
2022/09/17 10:58:51;;;;;;;3.83;1.50;;;15.50;99.90;;;;;;4988790;28;20210;-76
2022/09/17 11:01:35;;;;;;;3.60;1.00;;;15.30;99.90;;;;;;4995189;28;20302;-75
2022/09/17 11:04:43;;;;;;;3.07;1.00;;;15.00;99.90;;;;;;4987250;28;20673;-76
2022/09/17 11:07:16;;;;;;;5.33;0.77;;;14.70;99.90;;;;;;4999481;28;20286;-78
2022/09/17 11:10:11;;;;;;;4.83;1.03;;;14.50;99.90;;;;;;5000850;28;20266;-79
2022/09/17 11:13:32;;;;;;;5.73;1.00;;;14.50;99.90;;;;;;4994840;28;20301;-77
2022/09/17 11:16:36;;;;;;;4.03;0.97;;;14.60;99.90;;;;;;4893067;29;20226;-76
2022/09/17 11:19:29;;;;;;;5.50;1.43;;;14.70;99.90;;;;;;4984388;28;20199;-76
2022/09/17 11:22:12;;;;;;;3.33;1.13;;;14.80;99.90;;;;;;4982175;28;20200;-75
2022/09/17 11:25:06;;;;;;;4.13;1.50;;;15.00;99.90;;;;;;4983337;28;20302;-76
2022/09/17 11:28:04;;;;;;;5.50;1.63;;;15.00;99.90;;;;;;4986751;28;20199;-78
2022/09/17 11:31:00;;;;;;;5.00;1.10;;;15.00;99.90;;;;;;4988083;28;20242;-77
2022/09/17 11:33:50;;;;;;;6.73;1.47;;;15.10;99.90;;;;;;4966197;28;20301;-76
2022/09/17 11:36:36;;;;;;;7.53;1.40;;;15.30;99.90;;;;;;4991615;28;20203;-77
2022/09/17 11:39:16;;;;;;;4.70;1.47;;;15.30;99.90;;;;;;4990360;28;20219;-79
2022/09/17 11:41:47;;;;;;;5.63;1.27;;;15.30;99.90;;;;;;4997620;28;20214;-76
2022/09/17 11:44:31;;;;;;;10.00;1.70;;;15.30;99.90;;;;;;4980426;28;20304;-76
2022/09/17 11:47:11;;;;;;;10.67;1.60;;;15.30;99.90;;;;;;4996818;28;20274;-76
2022/09/17 11:49:45;;;;;;;4.77;2.17;;;15.40;99.90;;;;;;4984626;28;20302;-76
2022/09/17 11:52:57;;;;;;;8.10;1.60;;;15.50;99.90;;;;;;4974955;28;20239;-77
2022/09/17 11:55:33;;;;;;;10.27;1.70;;;15.70;99.90;;;;;;4901401;29;20566;-78
2022/09/17 11:58:25;;;;;;;4.93;2.07;;;15.80;99.90;;;;;;4986654;28;20276;-77
2022/09/17 12:01:08;;;;;;;5.30;1.13;;;16.00;99.90;;;;;;4993336;28;20226;-76
2022/09/17 12:03:49;;;;;;;6.47;1.30;;;16.10;99.90;;;;;;4989373;28;20282;-77
2022/09/17 12:06:34;;;;;;;9.50;1.77;;;16.20;99.90;;;;;;4993212;28;20235;-75
2022/09/17 12:09:14;;;;;;;8.17;3.70;;;16.40;99.90;;;;;;4982181;28;20229;-77
2022/09/17 12:11:55;;;;;;;5.33;1.93;;;16.50;99.90;;;;;;4995561;28;20753;-77
2022/09/17 12:14:43;;;;;;;5.90;2.20;;;16.40;99.90;;;;;;4978548;28;20242;-80
2022/09/17 12:17:19;;;;;;;2.57;0.80;;;16.10;99.90;;;;;;4961775;28;20699;-79
2022/09/17 12:19:55;;;;;;;2.23;0.97;;;16.00;99.90;;;;;;4987552;28;20198;-79
2022/09/17 12:22:28;;;;;;;3.27;1.07;;;15.90;99.90;;;;;;4986842;28;20210;-78
2022/09/17 12:24:56;;;;;;;2.17;1.30;;;15.70;99.90;;;;;;4969964;28;20681;-78
2022/09/17 12:27:47;;;;;;;6.30;1.00;;;15.60;99.90;;;;;;4982865;28;20677;-77
2022/09/17 12:30:20;;;;;;;4.63;1.30;;;15.70;99.90;;;;;;4962896;28;20273;-78
2022/09/17 12:32:55;;;;;;;4.47;1.20;;;15.80;99.90;;;;;;4977903;28;20230;-77
2022/09/17 12:35:36;;;;;;;5.03;1.37;;;15.70;99.90;;;;;;4991825;28;20238;-78
2022/09/17 12:38:31;;;;;;;2.87;1.03;;;15.70;99.90;;;;;;4979809;28;20214;-77
2022/09/17 12:41:01;;;;;;;7.40;1.93;;;15.80;99.90;;;;;;4998449;28;20316;-76
2022/09/17 12:43:46;;;;;;;4.03;1.10;;;15.90;99.90;;;;;;4978662;28;20573;-77
2022/09/17 12:46:38;;;;;;;3.93;1.17;;;16.00;99.90;;;;;;4992607;28;20219;-76
2022/09/17 12:49:42;;;;;;;4.07;1.00;;;16.30;99.90;;;;;;4960726;28;20263;-77
2022/09/17 12:52:25;;;;;;;2.83;0.87;;;16.10;99.90;;;;;;5000278;28;20279;-79
2022/09/17 12:55:20;;;;;;;4.60;0.90;;;15.60;99.90;;;;;;4994878;28;20544;-76
2022/09/17 12:58:14;;;;;;;6.17;1.10;;;14.90;99.90;;;;;;4993495;28;20210;-80
2022/09/17 13:00:50;;;;;;;1.80;0.70;;;14.50;99.90;;;;;;5001639;28;20237;-76
2022/09/17 13:03:35;;;;;;;3.87;1.60;;;14.30;99.90;;;;;;5000545;28;20260;-78
2022/09/17 13:06:11;;;;;;;4.97;1.20;;;14.10;99.90;;;;;;4990047;28;20609;-78
2022/09/17 13:09:04;;;;;;;3.70;1.60;;;14.30;99.90;;;;;;4998883;28;20218;-80
2022/09/17 13:11:37;;;;;;;3.33;1.23;;;14.40;99.90;;;;;;4982987;28;20498;-77
2022/09/17 13:14:30;;;;;;;6.27;1.70;;;14.50;99.90;;;;;;4992082;28;20306;-78
2022/09/17 13:17:20;;;;;;;4.47;0.90;;;14.50;99.90;;;;;;4992973;28;20222;-81
2022/09/17 13:20:00;;;;;;;5.03;1.27;;;14.70;99.90;;;;;;4994470;28;20214;-79
2022/09/17 13:22:32;;;;;;;7.03;1.83;;;15.00;99.90;;;;;;4995990;28;20524;-78
2022/09/17 13:25:08;;;;;;;4.50;1.20;;;15.20;99.90;;;;;;4993247;28;20208;-79